Terminal Aerodrome Forecast
Issued by NWS

Home | Current Version | Previous Version | Text Only | Print | Product List | Glossary On
Versions: 1 2 3 4 5 6 7 8 9 10 11 12 13 14 15 16 17 18 19 20 21 22
000
FTUS41 KRLX 250200 AAA
TAFCKB
TAF AMD
KCKB 250241Z 2503/2524 05002KT P6SM BKN250
     FM250700 00000KT P6SM BKN110
     FM251600 06006KT P6SM BKN045
     FM251900 08007KT 6SM -SHRA OVC035
     FM252100 06008KT 5SM SHRA BR BKN030=

USA.gov is the U.S. government's official web portal to all federal, state and local government web resources and services.